Time;durP1;ratioP1;P1;durP2;ratioP2;P2;SDS_P1;SDS_P2;PMS_P1;PMS_P2;Temp;Humidity;BMP_temperature;BMP_pressure;BME280_temperature;BME280_humidity;BME280_pressure;Samples;Min_cycle;Max_cycle;Signal;HPM_P1;HPM_P2
2020/12/19 00:00:40;;;;;;;5.50;5.10;;;;;;;-1.09;92.67;96076.63;6027944;23;20204;-70
2020/12/19 00:03:08;;;;;;;4.47;4.20;;;;;;;-1.11;92.91;96071.53;6028352;23;20206;-71
2020/12/19 00:05:34;;;;;;;5.50;5.03;;;;;;;-1.15;92.69;96072.66;6027712;23;20470;-70
2020/12/19 00:08:02;;;;;;;4.60;4.30;;;;;;;-1.17;92.65;96072.78;6025555;23;20219;-70
2020/12/19 00:10:29;;;;;;;5.30;4.90;;;;;;;-1.17;92.67;96064.19;6025768;23;21157;-70
2020/12/19 00:12:59;;;;;;;5.10;4.80;;;;;;;-1.18;92.29;96059.94;6028869;23;20439;-70
2020/12/19 00:15:27;;;;;;;4.87;4.47;;;;;;;-1.21;92.62;96057.53;6025365;23;20672;-70
2020/12/19 00:17:54;;;;;;;5.20;4.80;;;;;;;-1.20;92.69;96051.41;6027787;23;20215;-69
2020/12/19 00:20:22;;;;;;;5.83;5.43;;;;;;;-1.17;91.91;96051.25;6026656;23;20861;-70
2020/12/19 00:22:49;;;;;;;4.20;3.90;;;;;;;-1.23;91.73;96051.63;6028478;23;20998;-70
2020/12/19 00:25:16;;;;;;;3.50;3.30;;;;;;;-1.25;91.92;96043.16;6027584;23;20818;-70
2020/12/19 00:27:45;;;;;;;4.63;4.27;;;;;;;-1.27;91.85;96042.44;6026634;23;20447;-70
2020/12/19 00:30:12;;;;;;;5.10;4.73;;;;;;;-1.25;92.14;96045.75;6026994;23;20217;-70
2020/12/19 00:32:39;;;;;;;4.83;4.50;;;;;;;-1.25;91.90;96043.16;6028832;23;20508;-70
2020/12/19 00:35:07;;;;;;;4.53;4.23;;;;;;;-1.31;91.55;96033.19;6027023;23;20444;-69
2020/12/19 00:37:39;;;;;;;4.13;3.93;;;;;;;-1.36;91.40;96041.28;6026834;23;20806;-70
2020/12/19 00:40:07;;;;;;;4.27;3.97;;;;;;;-1.32;91.54;96041.88;6027322;23;21016;-70
2020/12/19 00:42:36;;;;;;;5.30;5.00;;;;;;;-1.37;91.42;96038.75;6027577;23;20259;-70
2020/12/19 00:45:03;;;;;;;3.83;3.63;;;;;;;-1.41;91.53;96042.50;6027653;23;20747;-70
2020/12/19 00:47:30;;;;;;;4.63;4.33;;;;;;;-1.40;91.71;96042.41;6028122;23;20500;-70
2020/12/19 00:49:57;;;;;;;4.67;4.43;;;;;;;-1.41;91.95;96042.50;6027321;23;20771;-70
2020/12/19 00:52:24;;;;;;;4.17;3.97;;;;;;;-1.41;92.00;96045.91;6028007;23;20289;-70
2020/12/19 00:54:52;;;;;;;5.33;5.03;;;;;;;-1.47;92.09;96039.38;6026352;23;20440;-70
2020/12/19 00:57:19;;;;;;;4.67;4.27;;;;;;;-1.47;92.51;96039.38;6025892;23;21041;-70
2020/12/19 00:59:46;;;;;;;4.53;4.17;;;;;;;-1.39;92.77;96038.03;6025863;23;21059;-70
2020/12/19 01:02:12;;;;;;;4.57;4.27;;;;;;;-1.35;92.80;96042.09;6026121;23;20492;-70
2020/12/19 01:04:39;;;;;;;4.93;4.63;;;;;;;-1.32;93.03;96036.72;6027637;23;20440;-70
2020/12/19 01:07:09;;;;;;;5.50;5.20;;;;;;;-1.20;93.24;96041.88;6027576;23;20449;-70
2020/12/19 01:09:36;;;;;;;5.00;4.70;;;;;;;-1.14;92.88;96035.47;6025607;23;20491;-70
2020/12/19 01:12:06;;;;;;;4.43;4.07;;;;;;;-1.16;92.86;96038.19;6026078;23;20444;-70
2020/12/19 01:14:33;;;;;;;4.10;3.90;;;;;;;-1.20;92.52;96033.28;6026384;23;20495;-70
2020/12/19 01:17:04;;;;;;;5.47;4.97;;;;;;;-1.24;92.58;96024.91;6028326;23;20504;-70
2020/12/19 01:19:31;;;;;;;9.53;5.37;;;;;;;-1.24;92.21;96034.44;6026245;23;20212;-69
2020/12/19 01:21:58;;;;;;;4.47;4.10;;;;;;;-1.28;92.30;96032.97;6028148;23;20441;-70
2020/12/19 01:24:25;;;;;;;3.97;3.63;;;;;;;-1.34;92.59;96036.00;6027699;23;20442;-70
2020/12/19 01:26:52;;;;;;;4.63;4.37;;;;;;;-1.33;92.31;96032.47;6025769;23;20466;-70
2020/12/19 01:29:21;;;;;;;7.43;6.73;;;;;;;-1.34;91.98;96031.66;6027468;23;20446;-70
2020/12/19 01:31:48;;;;;;;4.37;4.07;;;;;;;-1.37;92.07;96036.19;6025484;23;20208;-70
2020/12/19 01:34:14;;;;;;;4.37;4.13;;;;;;;-1.40;92.09;96032.03;6027649;23;20450;-70
2020/12/19 01:36:43;;;;;;;5.17;4.77;;;;;;;-1.42;92.56;96025.31;6027289;23;20531;-70
2020/12/19 01:39:10;;;;;;;4.47;4.17;;;;;;;-1.40;92.38;96026.03;6026707;23;20475;-70
2020/12/19 01:41:37;;;;;;;5.37;5.03;;;;;;;-1.37;92.25;96018.06;6024915;23;20502;-70
2020/12/19 01:44:05;;;;;;;5.50;4.90;;;;;;;-1.38;92.40;96021.59;6027510;23;20472;-70
2020/12/19 01:46:46;;;;;;;4.73;4.37;;;;;;;-1.42;92.14;96017.56;6026412;23;20448;-70
2020/12/19 01:49:14;;;;;;;4.83;4.53;;;;;;;-1.36;92.39;96024.91;6027344;23;20440;-70
2020/12/19 01:51:42;;;;;;;6.40;5.90;;;;;;;-1.39;92.24;96025.09;6029161;23;20439;-70
2020/12/19 01:54:09;;;;;;;5.17;4.37;;;;;;;-1.41;92.39;96026.97;6029209;23;20494;-70
2020/12/19 01:56:49;;;;;;;4.40;4.10;;;;;;;-1.47;92.16;96023.84;6027778;23;20458;-70
2020/12/19 01:59:18;;;;;;;5.03;4.73;;;;;;;-1.45;92.48;96026.34;6028581;23;20445;-71
2020/12/19 02:01:47;;;;;;;4.73;4.37;;;;;;;-1.50;92.10;96024.06;6029158;23;20508;-70
2020/12/19 02:04:15;;;;;;;4.43;4.17;;;;;;;-1.52;92.19;96020.75;6029056;23;20519;-70
2020/12/19 02:06:45;;;;;;;4.37;4.13;;;;;;;-1.50;92.59;96023.22;6029131;23;20448;-70
2020/12/19 02:09:13;;;;;;;4.13;3.70;;;;;;;-1.50;92.42;96015.47;6027367;23;20494;-70
2020/12/19 02:11:40;;;;;;;4.37;3.93;;;;;;;-1.44;92.63;96021.06;6029244;23;20449;-70
2020/12/19 02:14:08;;;;;;;4.67;4.27;;;;;;;-1.35;92.65;96021.41;6027183;23;20464;-70
2020/12/19 02:16:36;;;;;;;4.33;4.03;;;;;;;-1.34;92.89;96023.06;6027071;23;21134;-70
2020/12/19 02:19:12;;;;;;;4.00;3.80;;;;;;;-1.39;92.25;96019.94;6026824;23;20444;-70
2020/12/19 02:21:42;;;;;;;4.37;4.07;;;;;;;-1.44;92.01;96018.47;6028705;23;20494;-70
2020/12/19 02:24:10;;;;;;;5.17;4.87;;;;;;;-1.45;91.98;96016.00;6028423;23;20436;-70
2020/12/19 02:26:38;;;;;;;4.17;3.90;;;;;;;-1.47;91.70;96010.91;6028547;23;20855;-71
2020/12/19 02:29:05;;;;;;;4.33;4.03;;;;;;;-1.53;91.92;96010.50;6028403;23;20447;-70
2020/12/19 02:31:32;;;;;;;3.97;3.67;;;;;;;-1.56;91.95;96006.34;6027012;23;20830;-70
2020/12/19 02:33:59;;;;;;;4.40;4.10;;;;;;;-1.56;92.15;96008.09;6028732;23;20452;-70
2020/12/19 02:36:26;;;;;;;4.63;3.33;;;;;;;-1.58;92.00;96005.63;6030228;23;20440;-70
2020/12/19 02:38:53;;;;;;;4.60;4.20;;;;;;;-1.59;92.18;96009.13;6029326;23;20452;-70
2020/12/19 02:41:21;;;;;;;4.23;3.93;;;;;;;-1.59;92.47;96006.56;6029706;23;20443;-70
2020/12/19 02:43:54;;;;;;;5.70;5.30;;;;;;;-1.53;92.42;95997.56;6030420;23;20448;-70
2020/12/19 02:46:22;;;;;;;4.37;4.07;;;;;;;-1.54;92.32;96006.25;6030520;23;21014;-70
2020/12/19 02:48:50;;;;;;;6.27;5.77;;;;;;;-1.48;92.74;96004.06;6027932;23;20453;-70
2020/12/19 02:51:17;;;;;;;5.40;4.90;;;;;;;-1.44;92.88;96008.13;6030207;23;20491;-70
2020/12/19 02:53:44;;;;;;;5.77;5.33;;;;;;;-1.35;92.55;96000.69;6030710;23;20535;-70
2020/12/19 02:56:11;;;;;;;4.57;4.17;;;;;;;-1.35;92.61;95995.50;6028553;23;20436;-70
2020/12/19 02:58:40;;;;;;;5.90;5.40;;;;;;;-1.34;92.30;95992.00;6029261;23;20460;-71
2020/12/19 03:01:07;;;;;;;6.67;6.03;;;;;;;-1.44;91.82;95987.44;6029825;23;20444;-70
2020/12/19 03:03:34;;;;;;;5.63;5.23;;;;;;;-1.47;91.70;95987.59;6029270;23;20260;-70
2020/12/19 03:06:01;;;;;;;5.27;4.90;;;;;;;-1.59;91.79;95982.44;6030430;23;20260;-69
2020/12/19 03:08:28;;;;;;;6.00;5.57;;;;;;;-1.69;91.78;95982.22;5985975;23;20449;-70
2020/12/19 03:10:59;;;;;;;6.70;6.10;;;;;;;-1.73;92.06;95981.59;6000927;23;20437;-70
2020/12/19 03:13:26;;;;;;;5.83;5.33;;;;;;;-1.73;92.01;95985.94;5999280;23;20437;-70
2020/12/19 03:15:55;;;;;;;5.63;5.20;;;;;;;-1.70;92.39;95980.56;5999970;23;20495;-70
2020/12/19 03:18:22;;;;;;;6.33;5.93;;;;;;;-1.69;92.42;95978.81;6000769;23;20830;-70
2020/12/19 03:20:49;;;;;;;7.07;6.33;;;;;;;-1.62;92.59;95978.31;6000533;23;20477;-70
2020/12/19 03:23:17;;;;;;;6.00;5.60;;;;;;;-1.54;92.45;95985.56;6002117;23;20445;-70
2020/12/19 03:25:44;;;;;;;8.33;6.13;;;;;;;-1.54;91.95;95977.78;6001463;23;20436;-70
2020/12/19 03:28:11;;;;;;;5.33;4.87;;;;;;;-1.60;91.70;95981.59;6000848;23;20903;-70
2020/12/19 03:30:38;;;;;;;5.00;4.60;;;;;;;-1.62;91.91;95973.13;5998442;23;20437;-70
2020/12/19 03:33:06;;;;;;;5.87;5.37;;;;;;;-1.62;91.72;95970.53;6002184;23;20458;-70
2020/12/19 03:35:33;;;;;;;9.40;5.47;;;;;;;-1.62;92.19;95980.88;6001044;23;20830;-69
2020/12/19 03:38:01;;;;;;;8.20;6.63;;;;;;;-1.66;91.85;95974.25;5998995;23;20440;-70
2020/12/19 03:40:27;;;;;;;5.00;4.60;;;;;;;-1.70;92.15;95969.38;5998927;23;20451;-70
2020/12/19 03:42:54;;;;;;;7.40;6.37;;;;;;;-1.63;92.33;95968.88;6001026;23;20503;-70
2020/12/19 03:45:22;;;;;;;4.40;4.07;;;;;;;-1.70;92.15;95965.03;5999999;23;20504;-70
2020/12/19 03:47:49;;;;;;;6.73;6.23;;;;;;;-1.79;92.32;95976.00;5999936;23;20441;-70
2020/12/19 03:50:17;;;;;;;5.17;4.77;;;;;;;-1.87;92.24;95968.72;5998922;23;20451;-71
2020/12/19 03:52:44;;;;;;;4.67;4.03;;;;;;;-1.87;92.24;95963.56;6001634;23;20799;-71
2020/12/19 03:55:11;;;;;;;5.30;4.90;;;;;;;-1.84;92.25;95968.53;5999387;23;20445;-71
2020/12/19 03:57:37;;;;;;;6.13;5.10;;;;;;;-1.83;92.82;95969.34;6001464;23;20500;-70
2020/12/19 04:00:08;;;;;;;4.50;4.20;;;;;;;-1.76;92.21;95961.09;6001277;23;20429;-70
2020/12/19 04:02:38;;;;;;;4.50;4.20;;;;;;;-1.74;91.96;95959.25;6001930;23;20781;-70
2020/12/19 04:05:09;;;;;;;3.80;3.50;;;;;;;-1.78;92.15;95956.94;5999589;23;20449;-70
2020/12/19 04:07:39;;;;;;;4.87;4.40;;;;;;;-1.82;92.34;95958.09;6002028;23;20823;-71
2020/12/19 04:10:08;;;;;;;3.97;3.67;;;;;;;-1.83;92.16;95956.41;5998292;23;20440;-70
2020/12/19 04:12:36;;;;;;;5.97;5.47;;;;;;;-1.85;92.21;95961.69;6001043;23;20469;-70
2020/12/19 04:15:09;;;;;;;5.57;5.20;;;;;;;-1.80;92.72;95964.00;6000453;23;20483;-70
2020/12/19 04:17:38;;;;;;;6.27;5.60;;;;;;;-1.85;92.27;95971.22;5999403;23;20448;-71
2020/12/19 04:20:07;;;;;;;4.83;4.53;;;;;;;-1.83;92.79;95965.03;5999824;23;20429;-70
2020/12/19 04:22:35;;;;;;;5.07;4.73;;;;;;;-1.84;92.51;95967.69;6001480;23;20440;-70
2020/12/19 04:25:06;;;;;;;3.73;3.50;;;;;;;-1.83;92.79;95964.16;6001250;23;20446;-70
2020/12/19 04:27:33;;;;;;;4.00;3.80;;;;;;;-1.81;92.87;95972.69;6000985;23;21285;-70
2020/12/19 04:30:00;;;;;;;4.50;4.13;;;;;;;-1.74;92.78;95963.56;5999233;23;20441;-70
2020/12/19 04:32:27;;;;;;;5.70;5.30;;;;;;;-1.78;92.42;95967.31;5999702;23;20515;-70
2020/12/19 04:34:54;;;;;;;3.90;3.60;;;;;;;-1.85;92.22;95958.28;6000777;23;20448;-70
2020/12/19 04:37:25;;;;;;;3.60;3.40;;;;;;;-1.89;92.65;95959.41;5999168;23;20444;-71
2020/12/19 04:39:53;;;;;;;4.47;4.17;;;;;;;-1.84;92.42;95962.53;6000333;23;20496;-71
2020/12/19 04:42:22;;;;;;;4.53;4.23;;;;;;;-1.86;92.32;95959.22;6000832;23;20822;-70
2020/12/19 04:44:50;;;;;;;5.07;4.77;;;;;;;-1.85;92.21;95955.69;6001083;23;20992;-70
2020/12/19 04:47:18;;;;;;;4.97;4.20;;;;;;;-1.82;92.38;95955.50;6000961;23;20440;-70
2020/12/19 04:49:46;;;;;;;5.97;5.60;;;;;;;-1.84;91.93;95952.19;5999132;23;20468;-70
2020/12/19 04:52:14;;;;;;;4.83;4.43;;;;;;;-1.80;92.02;95948.47;6001143;23;20460;-70
2020/12/19 04:54:41;;;;;;;4.27;4.07;;;;;;;-1.80;91.97;95958.81;6001932;23;20907;-71
2020/12/19 04:57:17;;;;;;;4.60;4.30;;;;;;;-1.89;91.49;95959.41;6029215;23;20808;-71
2020/12/19 04:59:45;;;;;;;3.93;3.67;;;;;;;-1.99;92.04;95964.38;6027470;23;20495;-71
2020/12/19 05:02:12;;;;;;;5.33;4.93;;;;;;;-2.02;91.73;95967.97;6029680;23;20447;-70
2020/12/19 05:04:39;;;;;;;4.87;4.53;;;;;;;-2.08;91.82;95965.78;6029614;23;20773;-70
2020/12/19 05:07:08;;;;;;;5.40;4.90;;;;;;;-2.08;92.25;95972.72;6029179;23;20816;-70
2020/12/19 05:09:37;;;;;;;4.90;4.50;;;;;;;-2.16;92.21;95970.63;6027243;23;20921;-71
2020/12/19 05:12:05;;;;;;;5.07;4.67;;;;;;;-2.18;92.58;95971.66;6025041;23;20435;-71
2020/12/19 05:14:33;;;;;;;7.17;6.53;;;;;;;-2.16;92.67;95964.63;6027236;23;20901;-71
2020/12/19 05:17:01;;;;;;;5.50;5.10;;;;;;;-2.16;92.54;95968.03;6026193;23;20476;-70
2020/12/19 05:19:32;;;;;;;4.67;4.37;;;;;;;-2.20;92.66;95971.75;6025997;23;20527;-70
2020/12/19 05:21:59;;;;;;;4.93;4.63;;;;;;;-2.22;92.46;95965.84;6029047;23;20830;-70
2020/12/19 05:24:29;;;;;;;5.57;5.17;;;;;;;-2.22;92.92;95965.84;6029613;23;20452;-70
2020/12/19 05:26:56;;;;;;;4.03;3.83;;;;;;;-2.22;92.59;95968.44;6029283;23;20440;-71
2020/12/19 05:29:25;;;;;;;5.33;4.93;;;;;;;-2.24;92.46;95972.88;6030890;23;20435;-70
2020/12/19 05:31:58;;;;;;;5.27;4.87;;;;;;;-2.27;92.93;95970.50;6030987;23;20554;-70
2020/12/19 05:34:27;;;;;;;4.97;4.67;;;;;;;-2.26;92.27;95976.50;6031406;23;20475;-70
2020/12/19 05:36:55;;;;;;;4.70;4.33;;;;;;;-2.33;92.60;95971.69;6030947;23;20451;-70
2020/12/19 05:39:23;;;;;;;6.43;5.93;;;;;;;-2.20;92.90;95971.75;6030956;23;20436;-70
2020/12/19 05:41:51;;;;;;;4.30;4.00;;;;;;;-2.21;92.48;95975.25;6030497;23;20982;-70
2020/12/19 05:44:19;;;;;;;4.93;4.63;;;;;;;-2.18;92.36;95975.06;6031129;23;20495;-70
2020/12/19 05:46:46;;;;;;;5.70;5.07;;;;;;;-2.26;92.45;95972.16;6031056;23;20447;-70
2020/12/19 05:49:13;;;;;;;4.13;3.83;;;;;;;-2.25;92.68;95973.81;6031419;23;20439;-70
2020/12/19 05:51:43;;;;;;;4.17;3.87;;;;;;;-2.27;92.41;95965.31;6031155;23;20436;-70
2020/12/19 05:54:12;;;;;;;4.60;4.30;;;;;;;-2.21;91.93;95964.91;6031366;23;20459;-70
2020/12/19 05:56:40;;;;;;;6.03;5.43;;;;;;;-2.24;92.07;95969.47;6030720;23;20431;-70
2020/12/19 05:59:10;;;;;;;5.17;4.27;;;;;;;-2.28;91.58;95963.66;6030950;23;20751;-70
2020/12/19 06:01:40;;;;;;;4.43;4.13;;;;;;;-2.31;91.87;95974.19;6030407;23;20483;-70
2020/12/19 06:04:08;;;;;;;4.13;3.83;;;;;;;-2.28;91.81;95979.19;6029388;23;20431;-70
2020/12/19 06:06:38;;;;;;;4.20;3.90;;;;;;;-2.32;91.74;95977.69;6030795;23;20444;-70
2020/12/19 06:09:08;;;;;;;3.30;3.10;;;;;;;-2.31;91.91;95981.94;6029257;23;20443;-70
2020/12/19 06:11:42;;;;;;;5.27;4.87;;;;;;;-2.36;91.68;95984.00;6030803;23;21058;-70
2020/12/19 06:14:14;;;;;;;4.10;3.80;;;;;;;-2.32;91.79;95988.88;6030390;23;20538;-70
2020/12/19 06:16:44;;;;;;;3.93;3.63;;;;;;;-2.41;92.14;95978.28;6030661;23;20515;-70
2020/12/19 06:19:16;;;;;;;3.83;3.63;;;;;;;-2.41;92.37;95986.03;6030698;23;20464;-70
2020/12/19 06:21:48;;;;;;;4.73;4.43;;;;;;;-2.45;92.28;95988.00;6031209;23;20497;-70
2020/12/19 06:24:38;;;;;;;4.67;4.47;;;;;;;-2.45;92.14;95982.81;6031198;23;20448;-70
2020/12/19 06:27:09;;;;;;;4.60;4.20;;;;;;;-2.42;92.81;95989.53;6030004;23;20784;-70
2020/12/19 06:29:37;;;;;;;4.30;4.00;;;;;;;-2.42;92.54;95981.78;6030732;23;20435;-70
2020/12/19 06:32:05;;;;;;;4.57;4.27;;;;;;;-2.42;92.58;95984.38;6030280;23;20499;-70
2020/12/19 06:34:32;;;;;;;4.27;3.97;;;;;;;-2.38;92.70;95985.84;6030362;23;20495;-70
2020/12/19 06:37:04;;;;;;;4.50;4.13;;;;;;;-2.38;92.74;95983.25;6030717;23;20495;-70
2020/12/19 06:39:31;;;;;;;4.23;3.30;;;;;;;-2.31;92.57;95979.34;6030196;23;20439;-70
2020/12/19 06:41:59;;;;;;;4.80;4.40;;;;;;;-2.35;92.43;95993.41;6030670;23;20514;-70
2020/12/19 06:44:27;;;;;;;3.53;3.33;;;;;;;-2.40;91.85;95987.69;6030768;23;20444;-70
2020/12/19 06:46:56;;;;;;;4.53;4.23;;;;;;;-2.42;92.31;95992.13;6030709;23;21140;-70
2020/12/19 06:49:35;;;;;;;6.97;6.37;;;;;;;-2.40;92.32;95985.09;6030315;23;20444;-70
2020/12/19 06:52:13;;;;;;;18.00;9.67;;;;;;;-2.40;92.30;95992.84;6030995;23;20439;-71
2020/12/19 06:54:42;;;;;;;9.57;8.63;;;;;;;-2.33;92.30;95988.97;6030794;23;20440;-70
2020/12/19 06:57:24;;;;;;;4.70;4.37;;;;;;;-2.35;92.24;95990.81;6027015;23;20439;-70
2020/12/19 06:59:51;;;;;;;5.27;4.97;;;;;;;-2.41;92.13;95993.78;6028263;23;21165;-70
2020/12/19 07:02:20;;;;;;;7.03;6.33;;;;;;;-2.36;92.22;96002.09;6028557;23;20431;-70
2020/12/19 07:04:48;;;;;;;10.83;10.03;;;;;;;-2.35;91.95;96003.75;6028804;23;20456;-70
2020/12/19 07:07:21;;;;;;;8.17;7.57;;;;;;;-2.40;92.12;95998.84;6027230;23;22406;-70
2020/12/19 07:09:55;;;;;;;6.83;6.43;;;;;;;-2.41;92.19;95999.78;6028458;23;20431;-71
2020/12/19 07:12:35;;;;;;;5.57;5.17;;;;;;;-2.40;92.12;96003.19;6028621;23;20439;-70
2020/12/19 07:15:04;;;;;;;5.07;4.77;;;;;;;-2.38;92.43;96003.91;6028255;23;20447;-70
2020/12/19 07:17:43;;;;;;;5.80;5.40;;;;;;;-2.34;92.47;95995.06;6028267;23;21037;-70
2020/12/19 07:20:11;;;;;;;4.47;3.63;;;;;;;-2.27;92.14;95996.34;6028366;23;20435;-70
2020/12/19 07:22:38;;;;;;;3.30;3.10;;;;;;;-2.32;91.98;95999.19;6028744;23;20438;-70
2020/12/19 07:25:05;;;;;;;4.60;4.20;;;;;;;-2.37;91.44;96003.84;6028701;23;20770;-70
2020/12/19 07:27:32;;;;;;;4.10;3.80;;;;;;;-2.36;91.56;96000.34;6026262;23;20503;-70
2020/12/19 07:30:01;;;;;;;6.50;3.57;;;;;;;-2.35;91.70;96014.09;6028301;23;20924;-70
2020/12/19 07:32:28;;;;;;;5.73;5.10;;;;;;;-2.34;91.96;96010.56;6028016;23;20873;-70
2020/12/19 07:34:57;;;;;;;4.33;4.03;;;;;;;-2.23;92.08;96013.31;6028206;23;20436;-71
2020/12/19 07:37:24;;;;;;;3.63;3.33;;;;;;;-2.20;91.61;96007.94;6028004;23;20440;-70
2020/12/19 07:39:51;;;;;;;3.93;3.63;;;;;;;-2.24;91.97;96021.16;6027970;23;20440;-70
2020/12/19 07:42:18;;;;;;;5.70;5.30;;;;;;;-2.32;91.39;96013.88;6028930;23;20439;-70
2020/12/19 07:44:47;;;;;;;5.33;4.93;;;;;;;-2.33;91.05;96014.81;6026661;23;20435;-70
2020/12/19 07:47:15;;;;;;;3.93;3.63;;;;;;;-2.35;91.91;96017.50;6027352;23;20915;-71
2020/12/19 07:49:46;;;;;;;4.70;4.30;;;;;;;-2.29;92.02;96024.03;6027723;23;21203;-70
2020/12/19 07:52:17;;;;;;;6.73;6.13;;;;;;;-2.23;92.26;96033.97;6026429;23;20926;-70
2020/12/19 07:55:07;;;;;;;6.57;5.93;;;;;;;-2.21;92.14;96026.13;6028309;23;20436;-71
2020/12/19 07:57:34;;;;;;;3.80;3.50;;;;;;;-2.18;92.27;96025.94;6012520;23;20510;-70
2020/12/19 08:00:04;;;;;;;4.37;4.03;;;;;;;-2.15;92.23;96021.41;6028115;23;20439;-71
2020/12/19 08:02:37;;;;;;;4.43;4.03;;;;;;;-2.14;92.07;96027.41;6027819;23;20531;-70
2020/12/19 08:05:04;;;;;;;3.13;2.60;;;;;;;-2.15;92.00;96024.00;6024720;23;20487;-71
2020/12/19 08:07:31;;;;;;;3.93;3.63;;;;;;;-2.05;91.94;96027.66;6026546;23;20452;-70
2020/12/19 08:10:00;;;;;;;4.60;4.27;;;;;;;-2.07;91.62;96029.50;6027982;23;20439;-70
2020/12/19 08:12:30;;;;;;;3.13;2.93;;;;;;;-2.07;91.61;96024.34;6026371;23;20507;-70
2020/12/19 08:14:58;;;;;;;3.90;3.60;;;;;;;-2.04;91.52;96026.72;6025449;23;20514;-70
2020/12/19 08:17:26;;;;;;;2.93;2.80;;;;;;;-2.01;91.95;96028.28;6027757;23;20471;-70
2020/12/19 08:19:57;;;;;;;5.73;3.43;;;;;;;-2.01;92.14;96033.47;6027851;23;20432;-70
2020/12/19 08:22:24;;;;;;;3.43;3.23;;;;;;;-1.97;92.18;96028.91;6026241;23;20439;-71
2020/12/19 08:24:59;;;;;;;3.63;3.27;;;;;;;-1.88;92.02;96038.66;6027939;23;20893;-70
2020/12/19 08:27:28;;;;;;;4.57;3.47;;;;;;;-1.80;91.47;96036.41;6026754;23;20499;-70
2020/12/19 08:30:11;;;;;;;3.43;3.23;;;;;;;-1.85;91.14;96028.13;6027983;23;20439;-70
2020/12/19 08:32:43;;;;;;;3.47;3.27;;;;;;;-1.83;91.38;96028.84;6027963;23;20470;-70
2020/12/19 08:35:17;;;;;;;5.37;3.67;;;;;;;-1.75;91.39;96034.34;6028183;23;20443;-70
2020/12/19 08:37:45;;;;;;;3.73;3.43;;;;;;;-1.71;91.07;96035.81;6027976;23;20439;-71
2020/12/19 08:40:14;;;;;;;3.50;3.30;;;;;;;-1.66;90.87;96038.94;6025568;23;20439;-71
2020/12/19 08:42:44;;;;;;;3.27;3.07;;;;;;;-1.68;90.83;96043.38;6027601;23;20487;-70
2020/12/19 08:45:23;;;;;;;4.20;3.90;;;;;;;-1.61;90.74;96042.06;6027372;23;20448;-71
2020/12/19 08:47:51;;;;;;;6.57;4.17;;;;;;;-1.40;90.00;96038.97;6026904;23;20431;-71
2020/12/19 08:50:25;;;;;;;4.30;4.00;;;;;;;-1.41;89.39;96039.91;6025420;23;20448;-71
2020/12/19 08:53:12;;;;;;;4.03;3.73;;;;;;;-1.33;89.02;96040.25;6025204;23;20436;-71
2020/12/19 08:55:40;;;;;;;4.77;4.47;;;;;;;-1.36;89.10;96035.28;6027811;23;20447;-71
2020/12/19 08:58:07;;;;;;;4.30;3.90;;;;;;;-1.26;89.16;96037.13;6026133;23;20451;-71
2020/12/19 09:00:37;;;;;;;4.50;4.20;;;;;;;-1.22;88.95;96035.16;6028751;23;20435;-70
2020/12/19 09:03:07;;;;;;;3.90;3.60;;;;;;;-1.16;88.42;96039.94;6029181;23;20439;-70
2020/12/19 09:05:42;;;;;;;5.07;4.77;;;;;;;-1.15;88.40;96033.81;6029935;23;20816;-70
2020/12/19 09:08:11;;;;;;;3.57;3.37;;;;;;;-1.13;87.92;96031.97;6029709;23;20439;-71
2020/12/19 09:10:39;;;;;;;4.67;4.27;;;;;;;-1.19;88.06;96033.22;6028227;23;20964;-70
2020/12/19 09:13:20;;;;;;;6.00;5.47;;;;;;;-1.14;87.69;96035.47;6028940;23;20504;-71
2020/12/19 09:15:47;;;;;;;5.50;4.47;;;;;;;-1.09;88.01;96043.78;6028129;23;20443;-71
2020/12/19 09:18:22;;;;;;;4.73;4.43;;;;;;;-1.05;88.48;96040.03;6029129;23;20927;-70
2020/12/19 09:20:56;;;;;;;5.53;5.03;;;;;;;-0.98;88.48;96046.47;6027270;23;20427;-70
2020/12/19 09:23:25;;;;;;;4.30;3.97;;;;;;;-0.96;88.03;96052.38;6028170;23;20497;-71
2020/12/19 09:25:53;;;;;;;4.43;4.13;;;;;;;-0.94;88.36;96053.09;6030061;23;20439;-71
2020/12/19 09:28:20;;;;;;;6.50;5.83;;;;;;;-0.91;88.42;96047.72;6028432;23;20435;-70
2020/12/19 09:30:47;;;;;;;4.17;3.87;;;;;;;-0.93;87.82;96049.56;6030027;23;20428;-71
2020/12/19 09:33:14;;;;;;;4.13;3.83;;;;;;;-0.94;87.96;96053.09;6028705;23;20812;-71
2020/12/19 09:35:41;;;;;;;4.37;4.07;;;;;;;-0.89;88.43;96061.38;6029936;23;21096;-71
2020/12/19 09:38:09;;;;;;;5.60;5.20;;;;;;;-0.78;88.36;96052.06;6023068;23;20850;-70
2020/12/19 09:40:36;;;;;;;3.87;3.40;;;;;;;-0.69;88.82;96043.66;6027673;23;20467;-71
2020/12/19 09:43:04;;;;;;;4.47;4.17;;;;;;;-0.62;88.55;96050.06;6027075;23;20495;-70
2020/12/19 09:45:31;;;;;;;4.37;4.07;;;;;;;-0.61;87.93;96049.13;6026807;23;20258;-70
2020/12/19 09:47:59;;;;;;;4.77;4.37;;;;;;;-0.57;87.73;96040.19;6029313;23;20441;-71
2020/12/19 09:50:27;;;;;;;3.43;3.23;;;;;;;-0.50;88.01;96036.25;6028132;23;20452;-70
2020/12/19 09:52:54;;;;;;;4.77;4.37;;;;;;;-0.47;88.16;96036.03;6028029;23;20501;-71
2020/12/19 09:55:23;;;;;;;4.63;4.33;;;;;;;-0.43;87.93;96027.13;6028480;23;20436;-71
2020/12/19 09:57:50;;;;;;;4.90;4.43;;;;;;;-0.39;87.33;96038.09;6027493;23;20212;-70
2020/12/19 10:00:17;;;;;;;6.60;6.00;;;;;;;-0.37;87.14;96037.03;6027057;23;20208;-71
2020/12/19 10:02:46;;;;;;;7.37;6.87;;;;;;;-0.32;86.61;96034.97;6027515;23;20586;-73
2020/12/19 10:05:13;;;;;;;7.20;5.43;;;;;;;-0.31;87.05;96033.19;6026546;23;20206;-73
2020/12/19 10:07:40;;;;;;;7.03;6.20;;;;;;;-0.36;86.51;96035.31;6026748;23;20449;-73
2020/12/19 10:10:08;;;;;;;5.37;4.97;;;;;;;-0.41;86.86;96038.19;6027782;23;20664;-73
2020/12/19 10:12:35;;;;;;;8.00;7.07;;;;;;;-0.34;86.87;96038.59;6028562;23;20473;-73
2020/12/19 10:15:03;;;;;;;8.90;8.10;;;;;;;-0.30;86.71;96040.88;6027780;23;20512;-73
2020/12/19 10:17:30;;;;;;;7.73;6.07;;;;;;;-0.31;86.57;96036.63;6028423;23;20231;-73
2020/12/19 10:19:57;;;;;;;4.87;4.47;;;;;;;-0.29;87.15;96034.72;6027856;23;20204;-72
2020/12/19 10:22:23;;;;;;;6.43;5.97;;;;;;;-0.18;87.35;96038.34;6028095;23;20441;-71
2020/12/19 10:24:50;;;;;;;5.20;4.70;;;;;;;-0.08;87.25;96032.41;6030506;23;20441;-71
2020/12/19 10:27:17;;;;;;;5.13;4.03;;;;;;;-0.03;86.21;96022.50;6030108;23;20500;-70
2020/12/19 10:29:45;;;;;;;4.13;3.83;;;;;;;0.05;85.20;96016.78;6029431;23;20243;-71
2020/12/19 10:32:13;;;;;;;4.93;3.90;;;;;;;0.11;85.35;96024.13;6030625;23;20207;-71
2020/12/19 10:34:40;;;;;;;5.63;5.00;;;;;;;0.12;85.66;96027.53;6029954;23;20832;-71
2020/12/19 10:37:07;;;;;;;6.50;5.83;;;;;;;0.15;85.50;96033.34;6025978;23;20241;-70
2020/12/19 10:39:34;;;;;;;6.03;5.53;;;;;;;0.27;86.28;96035.06;6027494;23;20512;-71
2020/12/19 10:42:01;;;;;;;5.37;4.97;;;;;;;0.40;86.23;96027.19;6027992;23;20201;-70
2020/12/19 10:44:28;;;;;;;4.43;4.13;;;;;;;0.53;86.73;96027.09;6027411;23;20233;-70
2020/12/19 10:46:58;;;;;;;3.50;3.20;;;;;;;0.68;86.44;96030.34;6029127;23;20613;-70
2020/12/19 10:49:25;;;;;;;6.30;4.90;;;;;;;0.76;85.75;96028.00;6028310;23;20216;-70
2020/12/19 10:51:52;;;;;;;3.70;3.50;;;;;;;0.78;85.71;96026.94;6026555;23;20213;-71
2020/12/19 10:54:19;;;;;;;5.30;4.90;;;;;;;0.79;84.85;96023.41;6027197;23;20265;-70
2020/12/19 10:56:55;;;;;;;3.90;3.70;;;;;;;0.92;85.27;96022.50;6026174;23;20242;-71
2020/12/19 10:59:22;;;;;;;3.87;3.63;;;;;;;1.03;84.93;96014.72;6027004;23;20244;-70
2020/12/19 11:01:48;;;;;;;3.53;3.30;;;;;;;1.04;84.48;96011.16;6025464;23;20203;-71
2020/12/19 11:04:17;;;;;;;4.10;3.80;;;;;;;0.95;83.47;96007.47;6026163;23;20239;-70
2020/12/19 11:06:44;;;;;;;4.07;3.77;;;;;;;0.82;83.09;96006.75;6029198;23;20215;-70
2020/12/19 11:09:13;;;;;;;4.17;3.87;;;;;;;0.71;82.55;95998.94;6028619;23;20239;-70
2020/12/19 11:11:40;;;;;;;4.73;4.23;;;;;;;0.65;82.89;95994.22;6026585;23;20202;-71
2020/12/19 11:14:07;;;;;;;5.83;4.80;;;;;;;0.59;83.73;95999.88;6021332;23;20213;-71
2020/12/19 11:16:34;;;;;;;6.73;5.70;;;;;;;0.63;84.32;95990.88;6026113;23;20221;-71
2020/12/19 11:19:01;;;;;;;6.47;5.87;;;;;;;0.73;84.25;95984.91;6025921;23;20254;-71
2020/12/19 11:21:28;;;;;;;10.23;8.10;;;;;;;0.76;84.36;95987.28;6028250;23;20677;-71
2020/12/19 11:23:55;;;;;;;7.27;6.77;;;;;;;0.75;84.21;95975.22;6028366;23;20211;-71
2020/12/19 11:26:22;;;;;;;8.17;7.37;;;;;;;0.76;83.89;95979.47;6028909;23;20252;-71
2020/12/19 11:28:51;;;;;;;8.00;7.33;;;;;;;0.70;83.11;95977.34;6027636;23;20669;-70
2020/12/19 11:31:25;;;;;;;8.43;7.67;;;;;;;0.74;83.94;95978.78;6028591;23;20325;-70
2020/12/19 11:33:52;;;;;;;7.77;7.03;;;;;;;0.75;83.17;95980.44;6027344;23;20205;-70
2020/12/19 11:36:19;;;;;;;8.47;7.60;;;;;;;0.81;83.07;95977.34;6028318;23;20207;-71
2020/12/19 11:38:46;;;;;;;6.57;5.97;;;;;;;0.89;83.51;95970.75;6029354;23;20517;-71
2020/12/19 11:41:13;;;;;;;5.53;5.17;;;;;;;0.89;82.58;95970.75;6027849;23;20217;-70